sensor_id;sensor_type;location;lat;lon;timestamp;temperature;humidity
8862;DHT22;4799;50.996;4.754;2023-07-31T00:00:33;16.70;99.90
8862;DHT22;4799;50.996;4.754;2023-07-31T00:02:59;16.70;99.90
8862;DHT22;4799;50.996;4.754;2023-07-31T00:05:25;16.70;99.90
8862;DHT22;4799;50.996;4.754;2023-07-31T00:07:51;16.70;99.90
8862;DHT22;4799;50.996;4.754;2023-07-31T00:10:16;16.70;99.90
8862;DHT22;4799;50.996;4.754;2023-07-31T00:12:45;16.70;99.90
8862;DHT22;4799;50.996;4.754;2023-07-31T00:15:12;16.70;99.90
8862;DHT22;4799;50.996;4.754;2023-07-31T00:17:38;16.80;99.90
8862;DHT22;4799;50.996;4.754;2023-07-31T00:20:04;16.80;99.90
8862;DHT22;4799;50.996;4.754;2023-07-31T00:22:30;16.80;99.90
8862;DHT22;4799;50.996;4.754;2023-07-31T00:24:56;16.80;99.90
8862;DHT22;4799;50.996;4.754;2023-07-31T00:27:22;16.80;99.90
8862;DHT22;4799;50.996;4.754;2023-07-31T00:29:48;16.80;99.90
8862;DHT22;4799;50.996;4.754;2023-07-31T00:32:13;16.90;99.90
8862;DHT22;4799;50.996;4.754;2023-07-31T00:34:39;16.90;99.90
8862;DHT22;4799;50.996;4.754;2023-07-31T00:37:05;16.90;99.90
8862;DHT22;4799;50.996;4.754;2023-07-31T00:39:33;16.90;99.90
8862;DHT22;4799;50.996;4.754;2023-07-31T00:41:58;16.90;99.90
8862;DHT22;4799;50.996;4.754;2023-07-31T00:44:24;16.90;99.90
8862;DHT22;4799;50.996;4.754;2023-07-31T00:46:50;16.90;99.90
8862;DHT22;4799;50.996;4.754;2023-07-31T00:49:16;16.90;99.90
8862;DHT22;4799;50.996;4.754;2023-07-31T00:51:42;17.00;99.90
8862;DHT22;4799;50.996;4.754;2023-07-31T00:54:08;17.00;99.90
8862;DHT22;4799;50.996;4.754;2023-07-31T00:56:33;17.00;99.90
8862;DHT22;4799;50.996;4.754;2023-07-31T00:58:59;17.00;99.90
8862;DHT22;4799;50.996;4.754;2023-07-31T01:01:25;17.00;99.90
8862;DHT22;4799;50.996;4.754;2023-07-31T01:03:51;17.00;99.90
8862;DHT22;4799;50.996;4.754;2023-07-31T01:06:36;17.00;99.90
8862;DHT22;4799;50.996;4.754;2023-07-31T01:09:23;17.00;99.90
8862;DHT22;4799;50.996;4.754;2023-07-31T01:11:56;17.00;99.90
8862;DHT22;4799;50.996;4.754;2023-07-31T01:14:22;17.00;99.90
8862;DHT22;4799;50.996;4.754;2023-07-31T01:16:47;17.00;99.90
8862;DHT22;4799;50.996;4.754;2023-07-31T01:19:15;17.10;99.90
8862;DHT22;4799;50.996;4.754;2023-07-31T01:27:56;17.10;99.90
8862;DHT22;4799;50.996;4.754;2023-07-31T01:30:28;17.10;99.90
8862;DHT22;4799;50.996;4.754;2023-07-31T01:32:59;17.10;99.90
8862;DHT22;4799;50.996;4.754;2023-07-31T01:35:27;17.10;99.90
8862;DHT22;4799;50.996;4.754;2023-07-31T01:37:53;17.10;99.90
8862;DHT22;4799;50.996;4.754;2023-07-31T01:40:19;17.20;99.90
8862;DHT22;4799;50.996;4.754;2023-07-31T01:42:45;17.10;99.90
8862;DHT22;4799;50.996;4.754;2023-07-31T01:45:11;17.20;99.90
8862;DHT22;4799;50.996;4.754;2023-07-31T01:47:37;17.20;99.90
8862;DHT22;4799;50.996;4.754;2023-07-31T01:50:03;17.20;99.90
8862;DHT22;4799;50.996;4.754;2023-07-31T01:52:28;17.20;99.90
8862;DHT22;4799;50.996;4.754;2023-07-31T01:54:55;17.20;99.90
8862;DHT22;4799;50.996;4.754;2023-07-31T01:57:21;17.20;99.90
8862;DHT22;4799;50.996;4.754;2023-07-31T01:59:46;17.20;99.90
8862;DHT22;4799;50.996;4.754;2023-07-31T02:02:13;17.20;99.90
8862;DHT22;4799;50.996;4.754;2023-07-31T02:04:38;17.20;99.90
8862;DHT22;4799;50.996;4.754;2023-07-31T02:07:05;17.20;99.90
8862;DHT22;4799;50.996;4.754;2023-07-31T02:09:31;17.30;99.90
8862;DHT22;4799;50.996;4.754;2023-07-31T02:11:57;17.20;99.90
8862;DHT22;4799;50.996;4.754;2023-07-31T02:14:22;17.30;99.90
8862;DHT22;4799;50.996;4.754;2023-07-31T02:16:48;17.30;99.90
8862;DHT22;4799;50.996;4.754;2023-07-31T02:19:14;17.30;99.90
8862;DHT22;4799;50.996;4.754;2023-07-31T02:21:39;17.30;99.90
8862;DHT22;4799;50.996;4.754;2023-07-31T02:24:05;17.30;99.90
8862;DHT22;4799;50.996;4.754;2023-07-31T02:26:31;17.30;99.90
8862;DHT22;4799;50.996;4.754;2023-07-31T02:28:57;17.30;99.90
8862;DHT22;4799;50.996;4.754;2023-07-31T02:31:22;17.30;99.90
8862;DHT22;4799;50.996;4.754;2023-07-31T02:33:48;17.30;99.90
8862;DHT22;4799;50.996;4.754;2023-07-31T02:36:14;17.40;99.90
8862;DHT22;4799;50.996;4.754;2023-07-31T02:38:40;17.40;99.90
8862;DHT22;4799;50.996;4.754;2023-07-31T02:41:05;17.40;99.90
8862;DHT22;4799;50.996;4.754;2023-07-31T02:43:31;17.40;99.90
8862;DHT22;4799;50.996;4.754;2023-07-31T02:45:57;17.40;99.90
8862;DHT22;4799;50.996;4.754;2023-07-31T02:48:23;17.40;99.90
8862;DHT22;4799;50.996;4.754;2023-07-31T02:50:48;17.40;99.90
8862;DHT22;4799;50.996;4.754;2023-07-31T02:53:14;17.40;99.90
8862;DHT22;4799;50.996;4.754;2023-07-31T02:55:41;17.50;99.90
8862;DHT22;4799;50.996;4.754;2023-07-31T02:58:06;17.40;99.90
8862;DHT22;4799;50.996;4.754;2023-07-31T03:00:32;17.50;99.90
8862;DHT22;4799;50.996;4.754;2023-07-31T03:02:58;17.50;99.90
8862;DHT22;4799;50.996;4.754;2023-07-31T03:05:23;17.50;99.90
8862;DHT22;4799;50.996;4.754;2023-07-31T03:07:49;17.50;99.90
8862;DHT22;4799;50.996;4.754;2023-07-31T03:10:15;17.50;99.90
8862;DHT22;4799;50.996;4.754;2023-07-31T03:12:41;17.50;99.90
8862;DHT22;4799;50.996;4.754;2023-07-31T03:15:07;17.50;99.90
8862;DHT22;4799;50.996;4.754;2023-07-31T03:17:33;17.50;99.90
8862;DHT22;4799;50.996;4.754;2023-07-31T03:19:58;17.50;99.90
8862;DHT22;4799;50.996;4.754;2023-07-31T03:22:24;17.50;99.90
8862;DHT22;4799;50.996;4.754;2023-07-31T03:24:50;17.50;99.90
8862;DHT22;4799;50.996;4.754;2023-07-31T03:27:15;17.50;99.90
8862;DHT22;4799;50.996;4.754;2023-07-31T03:29:41;17.50;99.90
8862;DHT22;4799;50.996;4.754;2023-07-31T03:32:07;17.50;99.90
8862;DHT22;4799;50.996;4.754;2023-07-31T03:34:32;17.50;99.90
8862;DHT22;4799;50.996;4.754;2023-07-31T03:36:59;17.50;99.90
8862;DHT22;4799;50.996;4.754;2023-07-31T03:39:25;17.50;99.90
8862;DHT22;4799;50.996;4.754;2023-07-31T03:41:50;17.50;99.90
8862;DHT22;4799;50.996;4.754;2023-07-31T03:44:16;17.50;99.90
8862;DHT22;4799;50.996;4.754;2023-07-31T03:46:42;17.50;99.90
8862;DHT22;4799;50.996;4.754;2023-07-31T03:49:07;17.50;99.90
8862;DHT22;4799;50.996;4.754;2023-07-31T03:51:33;17.50;99.90
8862;DHT22;4799;50.996;4.754;2023-07-31T03:53:59;17.50;99.90
8862;DHT22;4799;50.996;4.754;2023-07-31T03:56:25;17.50;99.90
8862;DHT22;4799;50.996;4.754;2023-07-31T03:58:51;17.60;99.90
8862;DHT22;4799;50.996;4.754;2023-07-31T04:01:16;17.60;99.90
8862;DHT22;4799;50.996;4.754;2023-07-31T04:03:43;17.60;99.90
8862;DHT22;4799;50.996;4.754;2023-07-31T04:06:09;17.50;99.90
8862;DHT22;4799;50.996;4.754;2023-07-31T04:08:35;17.50;99.90
8862;DHT22;4799;50.996;4.754;2023-07-31T04:11:01;17.50;99.90
8862;DHT22;4799;50.996;4.754;2023-07-31T04:13:29;17.50;99.90
8862;DHT22;4799;50.996;4.754;2023-07-31T04:15:55;17.50;99.90
8862;DHT22;4799;50.996;4.754;2023-07-31T04:18:21;17.50;99.90
8862;DHT22;4799;50.996;4.754;2023-07-31T04:20:47;17.40;99.90
8862;DHT22;4799;50.996;4.754;2023-07-31T04:23:13;17.40;99.90
8862;DHT22;4799;50.996;4.754;2023-07-31T04:25:38;17.40;99.90
8862;DHT22;4799;50.996;4.754;2023-07-31T04:28:04;17.30;99.90
8862;DHT22;4799;50.996;4.754;2023-07-31T04:30:30;17.30;99.90
8862;DHT22;4799;50.996;4.754;2023-07-31T04:32:56;17.20;99.90
8862;DHT22;4799;50.996;4.754;2023-07-31T04:35:21;17.20;99.90
8862;DHT22;4799;50.996;4.754;2023-07-31T04:37:47;17.20;99.90
8862;DHT22;4799;50.996;4.754;2023-07-31T04:40:15;17.20;99.90
8862;DHT22;4799;50.996;4.754;2023-07-31T04:42:41;17.20;99.90
8862;DHT22;4799;50.996;4.754;2023-07-31T04:45:08;17.20;99.90
8862;DHT22;4799;50.996;4.754;2023-07-31T04:47:34;17.20;99.90
8862;DHT22;4799;50.996;4.754;2023-07-31T04:49:59;17.10;99.90
8862;DHT22;4799;50.996;4.754;2023-07-31T04:52:25;17.10;99.90
8862;DHT22;4799;50.996;4.754;2023-07-31T04:54:51;17.10;99.90
8862;DHT22;4799;50.996;4.754;2023-07-31T04:57:16;17.10;99.90
8862;DHT22;4799;50.996;4.754;2023-07-31T04:59:42;17.10;99.90
8862;DHT22;4799;50.996;4.754;2023-07-31T05:02:08;17.10;99.90
8862;DHT22;4799;50.996;4.754;2023-07-31T05:04:34;17.20;99.90
8862;DHT22;4799;50.996;4.754;2023-07-31T05:07:00;17.20;99.90
8862;DHT22;4799;50.996;4.754;2023-07-31T05:09:25;17.20;99.90
8862;DHT22;4799;50.996;4.754;2023-07-31T05:11:51;17.20;99.90
8862;DHT22;4799;50.996;4.754;2023-07-31T05:14:17;17.20;99.90
8862;DHT22;4799;50.996;4.754;2023-07-31T05:16:42;17.20;99.90
8862;DHT22;4799;50.996;4.754;2023-07-31T05:19:08;17.20;99.90
8862;DHT22;4799;50.996;4.754;2023-07-31T05:21:34;17.20;99.90
8862;DHT22;4799;50.996;4.754;2023-07-31T05:23:59;17.20;99.90
8862;DHT22;4799;50.996;4.754;2023-07-31T05:26:25;17.20;99.90
8862;DHT22;4799;50.996;4.754;2023-07-31T05:28:51;17.20;99.90
8862;DHT22;4799;50.996;4.754;2023-07-31T05:31:16;17.20;99.90
8862;DHT22;4799;50.996;4.754;2023-07-31T05:33:42;17.20;99.90
8862;DHT22;4799;50.996;4.754;2023-07-31T05:36:08;17.30;99.90
8862;DHT22;4799;50.996;4.754;2023-07-31T05:38:34;17.30;99.90
8862;DHT22;4799;50.996;4.754;2023-07-31T05:41:00;17.30;99.90
8862;DHT22;4799;50.996;4.754;2023-07-31T05:43:26;17.30;99.90
8862;DHT22;4799;50.996;4.754;2023-07-31T05:45:51;17.30;99.90
8862;DHT22;4799;50.996;4.754;2023-07-31T05:48:17;17.30;99.90
8862;DHT22;4799;50.996;4.754;2023-07-31T05:50:43;17.30;99.90
8862;DHT22;4799;50.996;4.754;2023-07-31T05:53:09;17.30;99.90
8862;DHT22;4799;50.996;4.754;2023-07-31T05:55:35;17.30;99.90
8862;DHT22;4799;50.996;4.754;2023-07-31T05:58:01;17.20;99.90
8862;DHT22;4799;50.996;4.754;2023-07-31T06:00:27;17.20;99.90
8862;DHT22;4799;50.996;4.754;2023-07-31T06:02:53;17.20;99.90
8862;DHT22;4799;50.996;4.754;2023-07-31T06:05:19;17.20;99.90
8862;DHT22;4799;50.996;4.754;2023-07-31T06:07:44;17.20;99.90
8862;DHT22;4799;50.996;4.754;2023-07-31T06:10:10;17.20;99.90
8862;DHT22;4799;50.996;4.754;2023-07-31T06:12:36;17.20;99.90
8862;DHT22;4799;50.996;4.754;2023-07-31T06:15:03;17.20;99.90
8862;DHT22;4799;50.996;4.754;2023-07-31T06:17:29;17.30;99.90
8862;DHT22;4799;50.996;4.754;2023-07-31T06:19:56;17.30;99.90
8862;DHT22;4799;50.996;4.754;2023-07-31T06:22:21;17.40;99.90
8862;DHT22;4799;50.996;4.754;2023-07-31T06:24:47;17.40;99.90
8862;DHT22;4799;50.996;4.754;2023-07-31T06:27:13;17.30;99.90
8862;DHT22;4799;50.996;4.754;2023-07-31T06:29:38;17.40;99.90
8862;DHT22;4799;50.996;4.754;2023-07-31T06:32:04;17.40;99.90
8862;DHT22;4799;50.996;4.754;2023-07-31T06:34:30;17.40;99.90
8862;DHT22;4799;50.996;4.754;2023-07-31T06:36:56;17.40;99.90
8862;DHT22;4799;50.996;4.754;2023-07-31T06:39:22;17.40;99.90
8862;DHT22;4799;50.996;4.754;2023-07-31T06:41:48;17.50;99.90
8862;DHT22;4799;50.996;4.754;2023-07-31T06:44:14;17.50;99.90
8862;DHT22;4799;50.996;4.754;2023-07-31T06:46:39;17.50;99.90
8862;DHT22;4799;50.996;4.754;2023-07-31T06:49:05;17.50;99.90
8862;DHT22;4799;50.996;4.754;2023-07-31T06:51:31;17.60;99.90
8862;DHT22;4799;50.996;4.754;2023-07-31T06:53:57;17.60;99.90
8862;DHT22;4799;50.996;4.754;2023-07-31T06:56:23;17.60;99.90
8862;DHT22;4799;50.996;4.754;2023-07-31T06:58:49;17.70;99.90
8862;DHT22;4799;50.996;4.754;2023-07-31T07:01:15;17.70;99.90
8862;DHT22;4799;50.996;4.754;2023-07-31T07:03:40;17.80;99.90
8862;DHT22;4799;50.996;4.754;2023-07-31T07:06:06;17.90;99.90
8862;DHT22;4799;50.996;4.754;2023-07-31T07:08:32;18.00;99.90
8862;DHT22;4799;50.996;4.754;2023-07-31T07:10:58;18.00;99.90
8862;DHT22;4799;50.996;4.754;2023-07-31T07:13:23;18.00;99.90
8862;DHT22;4799;50.996;4.754;2023-07-31T07:15:50;18.10;99.90
8862;DHT22;4799;50.996;4.754;2023-07-31T07:18:16;18.30;99.90
8862;DHT22;4799;50.996;4.754;2023-07-31T07:20:52;18.40;99.90
8862;DHT22;4799;50.996;4.754;2023-07-31T07:23:19;18.50;99.90
8862;DHT22;4799;50.996;4.754;2023-07-31T07:25:45;18.60;99.90
8862;DHT22;4799;50.996;4.754;2023-07-31T07:28:12;18.60;99.90
8862;DHT22;4799;50.996;4.754;2023-07-31T07:30:37;18.70;99.90
8862;DHT22;4799;50.996;4.754;2023-07-31T07:33:03;18.70;99.90
8862;DHT22;4799;50.996;4.754;2023-07-31T07:35:29;18.80;99.90
8862;DHT22;4799;50.996;4.754;2023-07-31T07:37:55;18.90;99.90
8862;DHT22;4799;50.996;4.754;2023-07-31T07:40:22;18.90;99.90
8862;DHT22;4799;50.996;4.754;2023-07-31T07:42:47;18.90;99.90
8862;DHT22;4799;50.996;4.754;2023-07-31T07:45:13;18.90;99.90
8862;DHT22;4799;50.996;4.754;2023-07-31T07:47:42;18.90;99.90
8862;DHT22;4799;50.996;4.754;2023-07-31T07:50:08;18.90;99.90
8862;DHT22;4799;50.996;4.754;2023-07-31T07:52:34;18.90;99.90
8862;DHT22;4799;50.996;4.754;2023-07-31T07:54:59;18.90;99.90
8862;DHT22;4799;50.996;4.754;2023-07-31T07:57:26;18.90;99.90
8862;DHT22;4799;50.996;4.754;2023-07-31T07:59:52;18.90;99.90
8862;DHT22;4799;50.996;4.754;2023-07-31T08:02:17;18.90;99.90
8862;DHT22;4799;50.996;4.754;2023-07-31T08:04:43;18.90;99.90
8862;DHT22;4799;50.996;4.754;2023-07-31T08:07:11;19.00;99.90
8862;DHT22;4799;50.996;4.754;2023-07-31T08:09:38;19.00;99.90
8862;DHT22;4799;50.996;4.754;2023-07-31T08:12:04;19.00;99.90
8862;DHT22;4799;50.996;4.754;2023-07-31T08:14:30;19.10;99.90
8862;DHT22;4799;50.996;4.754;2023-07-31T08:16:56;19.10;99.90
8862;DHT22;4799;50.996;4.754;2023-07-31T08:19:22;19.20;99.90
8862;DHT22;4799;50.996;4.754;2023-07-31T08:21:48;19.30;99.90
8862;DHT22;4799;50.996;4.754;2023-07-31T08:24:13;19.40;99.90
8862;DHT22;4799;50.996;4.754;2023-07-31T08:26:39;19.50;99.90
8862;DHT22;4799;50.996;4.754;2023-07-31T08:29:05;19.50;99.90
8862;DHT22;4799;50.996;4.754;2023-07-31T08:31:31;19.60;99.90
8862;DHT22;4799;50.996;4.754;2023-07-31T08:33:57;19.70;99.90
8862;DHT22;4799;50.996;4.754;2023-07-31T08:36:23;19.80;99.90
8862;DHT22;4799;50.996;4.754;2023-07-31T08:38:48;19.90;99.90
8862;DHT22;4799;50.996;4.754;2023-07-31T08:41:16;20.00;99.90
8862;DHT22;4799;50.996;4.754;2023-07-31T08:43:49;20.00;99.90
8862;DHT22;4799;50.996;4.754;2023-07-31T08:46:15;20.00;99.90
8862;DHT22;4799;50.996;4.754;2023-07-31T08:48:42;19.90;99.90
8862;DHT22;4799;50.996;4.754;2023-07-31T08:51:08;19.90;99.90
8862;DHT22;4799;50.996;4.754;2023-07-31T08:53:34;19.80;99.90
8862;DHT22;4799;50.996;4.754;2023-07-31T08:56:00;19.80;99.90
8862;DHT22;4799;50.996;4.754;2023-07-31T08:58:31;19.80;99.90
8862;DHT22;4799;50.996;4.754;2023-07-31T09:00:59;19.80;99.90
8862;DHT22;4799;50.996;4.754;2023-07-31T09:03:26;19.90;99.90
8862;DHT22;4799;50.996;4.754;2023-07-31T09:05:52;19.90;99.90
8862;DHT22;4799;50.996;4.754;2023-07-31T09:08:21;20.00;99.90
8862;DHT22;4799;50.996;4.754;2023-07-31T09:10:47;19.90;99.90
8862;DHT22;4799;50.996;4.754;2023-07-31T09:13:16;20.00;99.90
8862;DHT22;4799;50.996;4.754;2023-07-31T09:15:43;20.00;99.90
8862;DHT22;4799;50.996;4.754;2023-07-31T09:18:10;20.00;99.90
8862;DHT22;4799;50.996;4.754;2023-07-31T09:20:36;20.00;99.90
8862;DHT22;4799;50.996;4.754;2023-07-31T09:23:08;20.10;99.90
8862;DHT22;4799;50.996;4.754;2023-07-31T09:25:34;20.10;99.90
8862;DHT22;4799;50.996;4.754;2023-07-31T09:28:01;20.10;99.90
8862;DHT22;4799;50.996;4.754;2023-07-31T09:30:27;20.10;99.90
8862;DHT22;4799;50.996;4.754;2023-07-31T09:33:06;20.10;99.90
8862;DHT22;4799;50.996;4.754;2023-07-31T09:35:34;20.20;99.90
8862;DHT22;4799;50.996;4.754;2023-07-31T09:38:05;20.20;99.90
8862;DHT22;4799;50.996;4.754;2023-07-31T09:40:33;20.20;99.90
8862;DHT22;4799;50.996;4.754;2023-07-31T09:43:04;20.30;99.90
8862;DHT22;4799;50.996;4.754;2023-07-31T09:45:35;20.30;99.90
8862;DHT22;4799;50.996;4.754;2023-07-31T09:48:10;20.30;99.90
8862;DHT22;4799;50.996;4.754;2023-07-31T09:50:41;20.40;99.90
8862;DHT22;4799;50.996;4.754;2023-07-31T09:53:08;20.50;99.90
8862;DHT22;4799;50.996;4.754;2023-07-31T09:55:37;20.50;99.90
8862;DHT22;4799;50.996;4.754;2023-07-31T09:58:12;20.60;99.90
8862;DHT22;4799;50.996;4.754;2023-07-31T10:00:38;20.70;99.90
8862;DHT22;4799;50.996;4.754;2023-07-31T10:03:07;20.80;99.90
8862;DHT22;4799;50.996;4.754;2023-07-31T10:05:39;20.90;99.90
8862;DHT22;4799;50.996;4.754;2023-07-31T10:08:07;21.00;99.90
8862;DHT22;4799;50.996;4.754;2023-07-31T10:10:36;21.10;99.90
8862;DHT22;4799;50.996;4.754;2023-07-31T10:13:02;21.30;99.90
8862;DHT22;4799;50.996;4.754;2023-07-31T10:15:29;21.40;99.90
8862;DHT22;4799;50.996;4.754;2023-07-31T10:17:56;21.40;99.90
8862;DHT22;4799;50.996;4.754;2023-07-31T10:20:23;21.40;99.90
8862;DHT22;4799;50.996;4.754;2023-07-31T10:22:49;21.30;99.90
8862;DHT22;4799;50.996;4.754;2023-07-31T10:25:15;21.30;99.90
8862;DHT22;4799;50.996;4.754;2023-07-31T10:27:42;21.40;99.90
8862;DHT22;4799;50.996;4.754;2023-07-31T10:30:11;21.40;99.90
8862;DHT22;4799;50.996;4.754;2023-07-31T10:32:39;21.30;99.90
8862;DHT22;4799;50.996;4.754;2023-07-31T10:35:07;21.30;99.90
8862;DHT22;4799;50.996;4.754;2023-07-31T10:37:41;21.40;99.90
8862;DHT22;4799;50.996;4.754;2023-07-31T10:40:17;21.60;99.90
8862;DHT22;4799;50.996;4.754;2023-07-31T10:42:49;21.70;99.90
8862;DHT22;4799;50.996;4.754;2023-07-31T10:48:03;21.80;99.90
8862;DHT22;4799;50.996;4.754;2023-07-31T10:50:52;21.80;99.90
8862;DHT22;4799;50.996;4.754;2023-07-31T10:55:49;21.60;99.90
8862;DHT22;4799;50.996;4.754;2023-07-31T10:58:20;21.60;99.90
8862;DHT22;4799;50.996;4.754;2023-07-31T11:00:46;21.60;99.90
8862;DHT22;4799;50.996;4.754;2023-07-31T11:03:18;21.50;99.90
8862;DHT22;4799;50.996;4.754;2023-07-31T11:08:24;21.70;99.90
8862;DHT22;4799;50.996;4.754;2023-07-31T11:11:11;21.80;99.90
8862;DHT22;4799;50.996;4.754;2023-07-31T11:16:08;22.00;99.90
8862;DHT22;4799;50.996;4.754;2023-07-31T11:18:35;22.10;99.90
8862;DHT22;4799;50.996;4.754;2023-07-31T11:21:00;22.30;99.90
8862;DHT22;4799;50.996;4.754;2023-07-31T11:23:26;22.30;99.90
8862;DHT22;4799;50.996;4.754;2023-07-31T11:25:52;22.40;99.90
8862;DHT22;4799;50.996;4.754;2023-07-31T11:28:19;22.50;99.90
8862;DHT22;4799;50.996;4.754;2023-07-31T11:30:46;22.50;99.90
8862;DHT22;4799;50.996;4.754;2023-07-31T11:33:13;22.60;99.90
8862;DHT22;4799;50.996;4.754;2023-07-31T11:35:44;22.70;99.90
8862;DHT22;4799;50.996;4.754;2023-07-31T11:38:33;22.70;99.90
8862;DHT22;4799;50.996;4.754;2023-07-31T11:40:59;22.80;99.90
8862;DHT22;4799;50.996;4.754;2023-07-31T11:43:25;22.70;99.90
8862;DHT22;4799;50.996;4.754;2023-07-31T11:45:54;22.70;99.90
8862;DHT22;4799;50.996;4.754;2023-07-31T11:48:24;22.70;99.90
8862;DHT22;4799;50.996;4.754;2023-07-31T11:50:51;22.70;99.90
8862;DHT22;4799;50.996;4.754;2023-07-31T11:53:26;22.70;99.90
8862;DHT22;4799;50.996;4.754;2023-07-31T11:55:52;22.70;99.90
8862;DHT22;4799;50.996;4.754;2023-07-31T11:58:19;22.70;99.90
8862;DHT22;4799;50.996;4.754;2023-07-31T12:00:46;22.60;99.90
8862;DHT22;4799;50.996;4.754;2023-07-31T12:03:12;22.60;99.90
8862;DHT22;4799;50.996;4.754;2023-07-31T12:05:38;22.50;99.90
8862;DHT22;4799;50.996;4.754;2023-07-31T12:08:12;22.50;99.90
8862;DHT22;4799;50.996;4.754;2023-07-31T12:10:39;22.30;99.90
8862;DHT22;4799;50.996;4.754;2023-07-31T12:13:11;22.30;99.90
8862;DHT22;4799;50.996;4.754;2023-07-31T12:15:43;22.30;99.90
8862;DHT22;4799;50.996;4.754;2023-07-31T12:18:13;22.40;99.90
8862;DHT22;4799;50.996;4.754;2023-07-31T12:20:57;22.50;99.90
8862;DHT22;4799;50.996;4.754;2023-07-31T12:23:26;22.80;99.90
8862;DHT22;4799;50.996;4.754;2023-07-31T12:26:15;22.90;99.90
8862;DHT22;4799;50.996;4.754;2023-07-31T12:31:19;23.30;99.90
8862;DHT22;4799;50.996;4.754;2023-07-31T12:33:46;23.40;99.90
8862;DHT22;4799;50.996;4.754;2023-07-31T12:36:23;23.50;99.90
8862;DHT22;4799;50.996;4.754;2023-07-31T12:38:50;23.40;99.90
8862;DHT22;4799;50.996;4.754;2023-07-31T12:41:16;23.30;99.90
8862;DHT22;4799;50.996;4.754;2023-07-31T12:43:44;23.10;99.90
8862;DHT22;4799;50.996;4.754;2023-07-31T12:46:10;23.00;99.90
8862;DHT22;4799;50.996;4.754;2023-07-31T12:48:37;22.80;99.90
8862;DHT22;4799;50.996;4.754;2023-07-31T12:51:03;22.80;99.90
8862;DHT22;4799;50.996;4.754;2023-07-31T12:53:29;22.90;99.90
8862;DHT22;4799;50.996;4.754;2023-07-31T12:55:56;22.90;99.90
8862;DHT22;4799;50.996;4.754;2023-07-31T12:58:21;23.00;99.90
8862;DHT22;4799;50.996;4.754;2023-07-31T13:00:47;22.90;99.90
8862;DHT22;4799;50.996;4.754;2023-07-31T13:03:13;22.90;99.90
8862;DHT22;4799;50.996;4.754;2023-07-31T13:05:39;22.90;99.90
8862;DHT22;4799;50.996;4.754;2023-07-31T13:08:04;22.80;99.90
8862;DHT22;4799;50.996;4.754;2023-07-31T13:10:30;22.80;99.90
8862;DHT22;4799;50.996;4.754;2023-07-31T13:12:56;22.80;99.90
8862;DHT22;4799;50.996;4.754;2023-07-31T13:15:22;22.80;99.90
8862;DHT22;4799;50.996;4.754;2023-07-31T13:17:48;22.80;99.90
8862;DHT22;4799;50.996;4.754;2023-07-31T13:20:14;22.70;99.90
8862;DHT22;4799;50.996;4.754;2023-07-31T13:22:39;22.60;99.90
8862;DHT22;4799;50.996;4.754;2023-07-31T13:25:05;22.50;99.90
8862;DHT22;4799;50.996;4.754;2023-07-31T13:27:31;22.40;99.90
8862;DHT22;4799;50.996;4.754;2023-07-31T13:29:57;22.20;99.90
8862;DHT22;4799;50.996;4.754;2023-07-31T13:32:23;22.10;99.90
8862;DHT22;4799;50.996;4.754;2023-07-31T13:34:49;21.90;99.90
8862;DHT22;4799;50.996;4.754;2023-07-31T13:37:15;21.80;99.90
8862;DHT22;4799;50.996;4.754;2023-07-31T13:39:41;21.70;99.90
8862;DHT22;4799;50.996;4.754;2023-07-31T13:42:08;21.60;99.90
8862;DHT22;4799;50.996;4.754;2023-07-31T13:44:34;21.50;99.90
8862;DHT22;4799;50.996;4.754;2023-07-31T13:47:01;21.40;99.90
8862;DHT22;4799;50.996;4.754;2023-07-31T13:49:27;21.40;99.90
8862;DHT22;4799;50.996;4.754;2023-07-31T13:51:53;21.30;99.90
8862;DHT22;4799;50.996;4.754;2023-07-31T13:54:19;21.20;99.90
8862;DHT22;4799;50.996;4.754;2023-07-31T13:56:45;21.10;99.90
8862;DHT22;4799;50.996;4.754;2023-07-31T13:59:11;21.00;99.90
8862;DHT22;4799;50.996;4.754;2023-07-31T14:01:37;20.90;99.90
8862;DHT22;4799;50.996;4.754;2023-07-31T14:04:03;20.80;99.90
8862;DHT22;4799;50.996;4.754;2023-07-31T14:06:29;20.80;99.90
8862;DHT22;4799;50.996;4.754;2023-07-31T14:08:54;20.70;99.90
8862;DHT22;4799;50.996;4.754;2023-07-31T14:11:21;20.70;99.90
8862;DHT22;4799;50.996;4.754;2023-07-31T14:13:47;20.60;99.90
8862;DHT22;4799;50.996;4.754;2023-07-31T14:16:13;20.60;99.90
8862;DHT22;4799;50.996;4.754;2023-07-31T14:18:39;20.60;99.90
8862;DHT22;4799;50.996;4.754;2023-07-31T14:21:05;20.60;99.90
8862;DHT22;4799;50.996;4.754;2023-07-31T14:23:30;20.60;99.90
8862;DHT22;4799;50.996;4.754;2023-07-31T14:25:56;20.60;99.90
8862;DHT22;4799;50.996;4.754;2023-07-31T14:28:22;20.60;99.90
8862;DHT22;4799;50.996;4.754;2023-07-31T14:30:47;20.50;99.90
8862;DHT22;4799;50.996;4.754;2023-07-31T14:33:13;20.40;99.90
8862;DHT22;4799;50.996;4.754;2023-07-31T14:35:39;20.40;99.90
8862;DHT22;4799;50.996;4.754;2023-07-31T14:38:04;20.40;99.90
8862;DHT22;4799;50.996;4.754;2023-07-31T14:40:30;20.40;99.90
8862;DHT22;4799;50.996;4.754;2023-07-31T14:42:56;20.30;99.90
8862;DHT22;4799;50.996;4.754;2023-07-31T14:45:21;20.40;99.90
8862;DHT22;4799;50.996;4.754;2023-07-31T14:47:47;20.40;99.90
8862;DHT22;4799;50.996;4.754;2023-07-31T14:50:13;20.40;99.90
8862;DHT22;4799;50.996;4.754;2023-07-31T14:52:39;20.40;99.90
8862;DHT22;4799;50.996;4.754;2023-07-31T14:55:05;20.30;99.90
8862;DHT22;4799;50.996;4.754;2023-07-31T14:57:33;20.30;99.90
8862;DHT22;4799;50.996;4.754;2023-07-31T14:59:58;20.30;99.90
8862;DHT22;4799;50.996;4.754;2023-07-31T15:02:25;20.20;99.90
8862;DHT22;4799;50.996;4.754;2023-07-31T15:04:52;20.20;99.90
8862;DHT22;4799;50.996;4.754;2023-07-31T15:07:18;20.20;99.90
8862;DHT22;4799;50.996;4.754;2023-07-31T15:09:43;20.10;99.90
8862;DHT22;4799;50.996;4.754;2023-07-31T15:12:09;20.10;99.90
8862;DHT22;4799;50.996;4.754;2023-07-31T15:14:35;20.10;99.90
8862;DHT22;4799;50.996;4.754;2023-07-31T15:17:00;20.10;99.90
8862;DHT22;4799;50.996;4.754;2023-07-31T15:19:26;19.90;99.90
8862;DHT22;4799;50.996;4.754;2023-07-31T15:21:52;19.90;99.90
8862;DHT22;4799;50.996;4.754;2023-07-31T15:24:18;19.80;99.90
8862;DHT22;4799;50.996;4.754;2023-07-31T15:26:43;19.70;99.90
8862;DHT22;4799;50.996;4.754;2023-07-31T15:29:09;19.70;99.90
8862;DHT22;4799;50.996;4.754;2023-07-31T15:31:38;19.70;99.90
8862;DHT22;4799;50.996;4.754;2023-07-31T15:34:04;19.70;99.90
8862;DHT22;4799;50.996;4.754;2023-07-31T15:36:33;19.60;99.90
8862;DHT22;4799;50.996;4.754;2023-07-31T15:38:59;19.60;99.90
8862;DHT22;4799;50.996;4.754;2023-07-31T15:41:25;19.50;99.90
8862;DHT22;4799;50.996;4.754;2023-07-31T15:43:51;19.50;99.90
8862;DHT22;4799;50.996;4.754;2023-07-31T15:46:17;19.50;99.90
8862;DHT22;4799;50.996;4.754;2023-07-31T15:48:43;19.40;99.90
8862;DHT22;4799;50.996;4.754;2023-07-31T15:51:08;19.40;99.90
8862;DHT22;4799;50.996;4.754;2023-07-31T15:53:34;19.40;99.90
8862;DHT22;4799;50.996;4.754;2023-07-31T15:56:00;19.40;99.90
8862;DHT22;4799;50.996;4.754;2023-07-31T15:58:27;19.40;99.90
8862;DHT22;4799;50.996;4.754;2023-07-31T16:00:53;19.50;99.90
8862;DHT22;4799;50.996;4.754;2023-07-31T16:03:19;19.50;99.90
8862;DHT22;4799;50.996;4.754;2023-07-31T16:05:47;19.50;99.90
8862;DHT22;4799;50.996;4.754;2023-07-31T16:08:13;19.50;99.90
8862;DHT22;4799;50.996;4.754;2023-07-31T16:10:39;19.40;99.90
8862;DHT22;4799;50.996;4.754;2023-07-31T16:13:05;19.50;99.90
8862;DHT22;4799;50.996;4.754;2023-07-31T16:15:31;19.50;99.90
8862;DHT22;4799;50.996;4.754;2023-07-31T16:17:56;19.40;99.90